Aérodrome :
LOGIN :

S'inscrire | Disclaimer

   EN    FR    IT 

 










Légende :    VFR   VFR Marginal   IFR   IFR Intensif   IFR Très Intensif
Visi : 
Plafond : 
>= 8 km
>= 3000ft
5 à 8 km
1000 à 3000 ft
1500m à 5 km
500 à 1000 ft
800 à 1500m
200 à 500 ft
< 800m
< 200 ft
Symboles :   Orages  Brouillard  Fortes neiges  Fortes précipitations  Vent > 20 kt
SIGMETs :   Divers  Orages  Givrage  Turbulence  Onde Orograph.  Cendres Volcan.







- Altitude de l'aérodrome : 1273 ft
- Code IATA : LJU


LJLJ - Ljubljana

DERNIER METAR :
  • 251930Z VRB02KT CAVOK 18/10 Q1013 NOSIG

METARs EXPIRÉS :
  • 251830Z 23005KT 090V250 CAVOK 20/10 Q1013 NOSIG
  • 251800Z 23009KT 200V260 9999 FEW060 21/09 Q1012 NOSIG
  • 251730Z 23011KT 9999 FEW060 22/09 Q1012 NOSIG
  • 251700Z 24010KT 210V270 9999 FEW060 22/09 Q1012 NOSIG

TAF TAF LJLJ
Valide du 25 à 18h jusqu'au 26 à 18h UTC


251700Z 2518/2618 26005KT 9999 SCT060
BECMG 2518/2520 29002KT
BECMG 2607/2609 BKN050
TEMPO 2610/2618 SHRA SCT033TCU BKN040
PROB40
TEMPO 2611/2618 VRB10KT 7000 TSRA BKN033CB
Pas de NOTAMs connus pour ce terrain.



MET'MAP, la Météo Aéronautique d'un coup d'oeil ! - Copyright ORBIFLY Décembre 2007 - Disclaimer

ORBIFLY MET'MAP TEAM :

Programmation & Développement : Alexandra Zaïnal
Conception & Développement : Baudouin d'Aumeries
Co-Programmation & Développement : Marc-Olivier Méhu
Soutien technique & logistique : Manuel Goepfert

Contact : metmap@orbifly.com




SOURCES & CREDITS :

   NOAA